Time;durP1;ratioP1;P1;durP2;ratioP2;P2;SDS_P1;SDS_P2;PMS_P1;PMS_P2;Temp;Humidity;BMP_temperature;BMP_pressure;BME280_temperature;BME280_humidity;BME280_pressure;Samples;Min_cycle;Max_cycle;Signal;HPM_P1;HPM_P2
2022/11/19 00:03:55;;;;;;;;;;;;;;;19.72;43.18;94707.16;10505694;28;2326;-48
2022/11/19 00:08:56;;;;;;;;;;;;;;;19.73;43.37;94702.69;10504918;28;2320;-47
2022/11/19 00:13:56;;;;;;;;;;;;;;;19.71;43.29;94705.63;10502304;28;2383;-48
2022/11/19 00:18:57;;;;;;;;;;;;;;;19.67;43.25;94693.34;10506875;28;2257;-50
2022/11/19 00:23:57;;;;;;;;;;;;;;;19.65;43.46;94684.97;10504947;28;2337;-47
2022/11/19 00:28:58;;;;;;;;;;;;;;;19.64;43.35;94688.69;10517370;28;2355;-51
2022/11/19 00:33:58;;;;;;;;;;;;;;;19.63;43.40;94692.38;10499498;28;2395;-52
2022/11/19 00:38:58;;;;;;;;;;;;;;;19.60;43.21;94687.72;10515811;28;2314;-49
2022/11/19 00:43:59;;;;;;;;;;;;;;;19.58;43.28;94689.84;10500561;28;2228;-48
2022/11/19 00:48:59;;;;;;;;;;;;;;;19.58;43.32;94697.75;10498515;28;2280;-54
2022/11/19 00:53:59;;;;;;;;;;;;;;;19.52;43.38;94694.41;10511086;28;2339;-50
2022/11/19 00:59:00;;;;;;;;;;;;;;;19.54;43.33;94694.13;10509877;28;2388;-51
2022/11/19 01:04:00;;;;;;;;;;;;;;;19.52;43.17;94693.63;10515912;28;2280;-51
2022/11/19 01:09:01;;;;;;;;;;;;;;;19.51;43.22;94695.50;10513209;28;2366;-50
2022/11/19 01:14:01;;;;;;;;;;;;;;;19.49;43.04;94703.66;10510259;28;2530;-53
2022/11/19 01:19:03;;;;;;;;;;;;;;;19.49;43.16;94695.00;10518369;28;2297;-48
2022/11/19 01:24:03;;;;;;;;;;;;;;;19.44;43.10;94711.66;10515447;28;2012;-51
2022/11/19 01:29:04;;;;;;;;;;;;;;;19.48;43.02;94714.47;10519695;28;2313;-49
2022/11/19 01:34:04;;;;;;;;;;;;;;;19.41;43.29;94717.47;10513244;28;2305;-49
2022/11/19 01:39:04;;;;;;;;;;;;;;;19.43;43.04;94717.19;10506932;28;2357;-53
2022/11/19 01:44:05;;;;;;;;;;;;;;;19.39;43.29;94713.59;10515672;28;2373;-51
2022/11/19 01:49:09;;;;;;;;;;;;;;;19.37;43.23;94721.75;10508915;28;2323;-50
2022/11/19 01:54:15;;;;;;;;;;;;;;;19.39;43.12;94724.84;10512358;28;2434;-52
2022/11/19 01:59:15;;;;;;;;;;;;;;;19.35;43.19;94723.13;10506822;28;2339;-48
2022/11/19 02:04:16;;;;;;;;;;;;;;;19.33;43.27;94723.41;10510543;28;2338;-48
2022/11/19 02:09:16;;;;;;;;;;;;;;;19.31;43.10;94724.72;10507607;28;2312;-51
2022/11/19 02:14:41;;;;;;;;;;;;;;;19.30;42.93;94731.84;10511522;28;2409;-48
2022/11/19 02:19:50;;;;;;;;;;;;;;;19.30;43.10;94726.59;10504550;28;2390;-51
2022/11/19 02:24:51;;;;;;;;;;;;;;;19.29;43.03;94725.00;10517933;28;2343;-49
2022/11/19 02:30:05;;;;;;;;;;;;;;;19.26;43.22;94735.34;10509079;28;2351;-52
2022/11/19 02:35:16;;;;;;;;;;;;;;;19.24;43.14;94733.00;10500787;28;2321;-50
2022/11/19 02:40:22;;;;;;;;;;;;;;;19.22;43.09;94727.25;10504355;28;2261;-49
2022/11/19 02:45:31;;;;;;;;;;;;;;;19.23;43.02;94731.44;10500055;28;2303;-53
2022/11/19 02:50:41;;;;;;;;;;;;;;;19.20;43.11;94737.28;10515671;28;2262;-49
2022/11/19 02:56:09;;;;;;;;;;;;;;;19.20;42.84;94742.53;10515223;28;2264;-48
2022/11/19 03:06:23;;;;;;;;;;;;;;;19.18;43.03;94741.25;10506698;28;2334;-49
2022/11/19 03:11:32;;;;;;;;;;;;;;;19.19;42.89;94745.41;10499323;28;2306;-50
2022/11/19 03:16:40;;;;;;;;;;;;;;;19.13;42.87;94751.81;10499018;28;2350;-52
2022/11/19 03:21:50;;;;;;;;;;;;;;;19.12;42.77;94748.44;10500387;28;2335;-50
2022/11/19 03:26:54;;;;;;;;;;;;;;;19.11;42.93;94756.59;10502514;28;2348;-51
2022/11/19 03:31:58;;;;;;;;;;;;;;;19.10;42.65;94758.44;10505520;28;2346;-49
2022/11/19 03:36:59;;;;;;;;;;;;;;;19.07;42.90;94766.91;10505153;28;2264;-50
2022/11/19 03:41:59;;;;;;;;;;;;;;;19.08;42.80;94759.81;10514807;28;2356;-50
2022/11/19 03:47:00;;;;;;;;;;;;;;;19.08;42.90;94767.69;10510199;28;2282;-48
2022/11/19 03:52:09;;;;;;;;;;;;;;;19.05;42.77;94763.00;10502668;28;2339;-51
2022/11/19 03:57:10;;;;;;;;;;;;;;;19.03;42.87;94773.78;10509547;28;2357;-53
2022/11/19 04:02:10;;;;;;;;;;;;;;;19.03;43.01;94767.75;10499696;28;2485;-50
2022/11/19 04:07:18;;;;;;;;;;;;;;;19.04;42.77;94769.31;10506697;28;2255;-51
2022/11/19 04:12:22;;;;;;;;;;;;;;;19.00;42.78;94755.97;10505869;28;2284;-50
2022/11/19 04:17:32;;;;;;;;;;;;;;;19.00;42.96;94769.09;10494688;28;2298;-51
2022/11/19 04:22:32;;;;;;;;;;;;;;;18.99;42.74;94769.41;10499772;28;2246;-49
2022/11/19 04:27:33;;;;;;;;;;;;;;;18.97;42.76;94769.69;10505280;28;2464;-51
2022/11/19 04:32:33;;;;;;;;;;;;;;;18.96;42.67;94772.63;10497159;28;2618;-51
2022/11/19 04:37:33;;;;;;;;;;;;;;;18.96;42.68;94776.00;10503867;28;2292;-50
2022/11/19 04:42:33;;;;;;;;;;;;;;;18.95;42.74;94773.66;10503379;28;2320;-47
2022/11/19 04:47:34;;;;;;;;;;;;;;;18.94;42.81;94769.50;10503010;28;2374;-48
2022/11/19 04:52:34;;;;;;;;;;;;;;;18.91;42.62;94776.09;10504934;28;2333;-47
2022/11/19 04:57:34;;;;;;;;;;;;;;;18.93;42.60;94784.47;10498673;28;2229;-50
2022/11/19 05:02:34;;;;;;;;;;;;;;;18.94;43.05;94786.00;10498842;28;2408;-48
2022/11/19 05:07:35;;;;;;;;;;;;;;;18.99;42.97;94788.56;10507436;28;2264;-49
2022/11/19 05:12:35;;;;;;;;;;;;;;;19.07;42.98;94780.03;10503901;28;2263;-49
2022/11/19 05:17:36;;;;;;;;;;;;;;;19.13;43.08;94792.03;10498740;28;2259;-46
2022/11/19 05:22:36;;;;;;;;;;;;;;;19.15;42.78;94796.97;10512149;28;2414;-49
2022/11/19 05:27:36;;;;;;;;;;;;;;;19.16;42.39;94791.47;10507483;28;2242;-50
2022/11/19 05:32:36;;;;;;;;;;;;;;;19.19;41.85;94796.13;10505973;28;2340;-50
2022/11/19 05:37:37;;;;;;;;;;;;;;;19.24;41.43;94797.91;10509498;28;2288;-51
2022/11/19 05:42:37;;;;;;;;;;;;;;;19.30;41.87;94802.78;10504749;28;2267;-49
2022/11/19 05:47:38;;;;;;;;;;;;;;;19.32;41.35;94797.22;10510792;28;2321;-50
2022/11/19 05:52:38;;;;;;;;;;;;;;;19.35;41.14;94788.81;10518505;28;2338;-47
2022/11/19 05:57:38;;;;;;;;;;;;;;;19.39;40.98;94793.19;10523856;28;2303;-49
2022/11/19 06:02:43;;;;;;;;;;;;;;;19.42;40.94;94791.84;10509664;28;2440;-49
2022/11/19 06:07:43;;;;;;;;;;;;;;;19.45;41.09;94789.41;10513097;28;2274;-49
2022/11/19 06:12:43;;;;;;;;;;;;;;;19.50;40.48;94801.69;10505089;28;2339;-50
2022/11/19 06:17:43;;;;;;;;;;;;;;;19.56;40.61;94812.91;10511265;28;2443;-50
2022/11/19 06:22:44;;;;;;;;;;;;;;;19.57;40.20;94809.19;10525864;28;2320;-49
2022/11/19 06:27:44;;;;;;;;;;;;;;;19.59;40.30;94817.56;10518390;28;2309;-51
2022/11/19 06:32:44;;;;;;;;;;;;;;;19.60;40.15;94814.66;10508223;28;2386;-48
2022/11/19 06:37:44;;;;;;;;;;;;;;;19.65;39.71;94821.69;10519324;28;2350;-49
2022/11/19 06:42:45;;;;;;;;;;;;;;;19.66;39.90;94826.63;10520838;28;2245;-50
2022/11/19 06:47:45;;;;;;;;;;;;;;;19.67;39.64;94840.56;10504149;28;2315;-50
2022/11/19 06:52:46;;;;;;;;;;;;;;;19.69;40.16;94833.97;10510950;28;2265;-49
2022/11/19 06:57:46;;;;;;;;;;;;;;;19.70;40.01;94834.75;10508746;28;2284;-47
2022/11/19 07:02:46;;;;;;;;;;;;;;;19.72;40.13;94846.50;10506347;28;2344;-47
2022/11/19 07:07:46;;;;;;;;;;;;;;;19.75;39.98;94842.53;10513173;28;2303;-50
2022/11/19 07:12:47;;;;;;;;;;;;;;;19.76;39.77;94837.00;10509568;28;2441;-51
2022/11/19 07:17:47;;;;;;;;;;;;;;;19.77;39.60;94843.81;10498614;28;2320;-52
2022/11/19 07:22:47;;;;;;;;;;;;;;;19.78;39.05;94847.22;10496897;28;2333;-52
2022/11/19 07:27:48;;;;;;;;;;;;;;;19.81;39.62;94862.41;10503714;28;2320;-49
2022/11/19 07:32:48;;;;;;;;;;;;;;;19.83;39.63;94866.31;10507287;28;2261;-49
2022/11/19 07:37:48;;;;;;;;;;;;;;;19.85;39.52;94858.13;10498192;28;2205;-50
2022/11/19 07:42:49;;;;;;;;;;;;;;;19.89;39.41;94859.09;10497279;28;2380;-50
2022/11/19 07:47:49;;;;;;;;;;;;;;;19.89;39.43;94862.53;10502317;28;2534;-53
2022/11/19 07:52:49;;;;;;;;;;;;;;;19.92;39.25;94869.06;10510796;28;2584;-51
2022/11/19 07:57:51;;;;;;;;;;;;;;;19.94;38.88;94869.56;10510351;28;2546;-51
2022/11/19 08:02:52;;;;;;;;;;;;;;;20.00;39.19;94873.66;10512347;28;2706;-49
2022/11/19 08:07:52;;;;;;;;;;;;;;;20.03;39.25;94870.44;10513172;28;2732;-47
2022/11/19 08:13:02;;;;;;;;;;;;;;;20.09;39.11;94877.19;10511400;28;2572;-49
2022/11/19 08:18:11;;;;;;;;;;;;;;;20.13;39.21;94883.41;10480120;28;2587;-47
2022/11/19 08:23:12;;;;;;;;;;;;;;;20.16;39.42;94878.34;10502145;28;2659;-53
2022/11/19 08:28:12;;;;;;;;;;;;;;;20.22;40.33;94879.84;10506438;28;2669;-53
2022/11/19 08:33:12;;;;;;;;;;;;;;;20.22;40.38;94881.69;10502773;28;2565;-48
2022/11/19 08:38:13;;;;;;;;;;;;;;;20.21;40.78;94886.19;10504183;28;2615;-47
2022/11/19 08:43:13;;;;;;;;;;;;;;;20.20;41.20;94881.97;10502137;28;2579;-49
2022/11/19 08:48:14;;;;;;;;;;;;;;;20.17;40.72;94884.41;10506952;28;2544;-49
2022/11/19 08:53:14;;;;;;;;;;;;;;;20.16;40.88;94877.56;10502130;28;2724;-48
2022/11/19 08:58:14;;;;;;;;;;;;;;;20.17;40.81;94887.03;10499845;28;2562;-50
2022/11/19 09:03:15;;;;;;;;;;;;;;;20.18;41.23;94884.09;10501106;28;2562;-52
2022/11/19 09:08:15;;;;;;;;;;;;;;;20.16;41.05;94890.72;10506712;28;2599;-51
2022/11/19 09:13:15;;;;;;;;;;;;;;;20.14;40.97;94893.66;10497329;28;2659;-49
2022/11/19 09:18:16;;;;;;;;;;;;;;;20.15;41.06;94897.06;10504450;28;2580;-52
2022/11/19 09:23:16;;;;;;;;;;;;;;;20.07;41.19;94901.13;10511603;28;2597;-53
2022/11/19 09:28:16;;;;;;;;;;;;;;;20.08;41.12;94901.91;10512748;28;2578;-51
2022/11/19 09:33:17;;;;;;;;;;;;;;;20.02;41.20;94911.75;10511610;28;2670;-48
2022/11/19 09:38:18;;;;;;;;;;;;;;;20.03;41.24;94907.28;10526491;28;2591;-50
2022/11/19 09:43:18;;;;;;;;;;;;;;;19.99;41.18;94906.31;10517507;28;2634;-51
2022/11/19 09:48:32;;;;;;;;;;;;;;;19.98;41.17;94918.66;10523041;28;2782;-51
2022/11/19 09:53:33;;;;;;;;;;;;;;;19.92;41.42;94916.41;10509941;28;2588;-50
2022/11/19 09:58:37;;;;;;;;;;;;;;;19.91;41.08;94918.25;10550932;27;2568;-50
2022/11/19 10:03:38;;;;;;;;;;;;;;;19.86;41.39;94922.81;10520711;28;2680;-49
2022/11/19 10:08:51;;;;;;;;;;;;;;;19.80;41.30;94923.97;10516521;28;2703;-49
2022/11/19 10:14:07;;;;;;;;;;;;;;;19.82;41.41;94919.22;10511337;28;2588;-49
2022/11/19 10:19:16;;;;;;;;;;;;;;;19.80;41.36;94914.25;10514403;28;2558;-51
2022/11/19 10:24:22;;;;;;;;;;;;;;;19.75;41.66;94921.41;10516954;28;2533;-48
2022/11/19 10:29:23;;;;;;;;;;;;;;;19.75;41.83;94919.56;10523287;28;2886;-48
2022/11/19 10:34:25;;;;;;;;;;;;;;;19.72;41.97;94922.00;10519398;28;2640;-52
2022/11/19 10:39:28;;;;;;;;;;;;;;;19.70;41.77;94917.00;10517827;28;2605;-50
2022/11/19 10:44:39;;;;;;;;;;;;;;;19.69;41.95;94917.31;10509853;28;2607;-48
2022/11/19 10:49:40;;;;;;;;;;;;;;;19.65;41.92;94913.69;10516560;28;2512;-47
2022/11/19 10:54:40;;;;;;;;;;;;;;;19.58;42.21;94910.66;10516901;28;2580;-48
2022/11/19 10:59:40;;;;;;;;;;;;;;;19.58;42.15;94911.44;10516576;28;2611;-53
2022/11/19 11:04:58;;;;;;;;;;;;;;;19.61;42.14;94907.44;10496981;28;2579;-50
2022/11/19 11:09:58;;;;;;;;;;;;;;;19.55;42.25;94893.63;10540112;27;2627;-49
2022/11/19 11:14:59;;;;;;;;;;;;;;;19.50;42.27;94893.69;10508025;28;2575;-50
2022/11/19 11:20:03;;;;;;;;;;;;;;;19.51;42.20;94883.94;10515432;28;2681;-50
2022/11/19 11:25:03;;;;;;;;;;;;;;;19.48;42.22;94886.09;10512812;28;2605;-53
2022/11/19 11:30:24;;;;;;;;;;;;;;;19.48;42.09;94885.31;10514788;28;2585;-49
2022/11/19 11:35:34;;;;;;;;;;;;;;;19.45;42.17;94886.66;10519229;28;2613;-49
2022/11/19 11:40:34;;;;;;;;;;;;;;;19.45;42.29;94891.91;10517272;28;2656;-51
2022/11/19 11:45:35;;;;;;;;;;;;;;;19.42;42.17;94899.59;10513444;28;2574;-50
2022/11/19 11:50:35;;;;;;;;;;;;;;;19.42;42.19;94892.50;10511296;28;2877;-52
2022/11/19 11:55:37;;;;;;;;;;;;;;;19.40;42.38;94885.97;10511772;28;2714;-49
2022/11/19 12:00:38;;;;;;;;;;;;;;;19.43;42.26;94878.28;10515803;28;2819;-50
2022/11/19 12:05:42;;;;;;;;;;;;;;;19.41;42.41;94867.25;10512976;28;2485;-50
2022/11/19 12:11:05;;;;;;;;;;;;;;;19.41;42.22;94864.63;10508170;28;2805;-50
2022/11/19 12:16:08;;;;;;;;;;;;;;;19.45;42.39;94859.59;10515748;28;2942;-49
2022/11/19 12:21:09;;;;;;;;;;;;;;;19.55;42.08;94856.03;10510730;28;2629;-47
2022/11/19 12:26:11;;;;;;;;;;;;;;;19.53;42.31;94850.28;10507780;28;2582;-50
2022/11/19 12:31:12;;;;;;;;;;;;;;;19.48;42.42;94859.81;10515781;28;2655;-49
2022/11/19 12:36:28;;;;;;;;;;;;;;;19.51;42.28;94860.28;10509930;28;2622;-53
2022/11/19 12:41:47;;;;;;;;;;;;;;;19.50;42.26;94859.50;10511961;28;2805;-49
2022/11/19 12:47:08;;;;;;;;;;;;;;;19.51;42.21;94866.34;10510931;28;2557;-52
2022/11/19 12:52:27;;;;;;;;;;;;;;;19.52;42.58;94869.72;10514282;28;2562;-51
2022/11/19 12:57:30;;;;;;;;;;;;;;;19.54;42.42;94859.75;10516175;28;2937;-53
2022/11/19 13:02:33;;;;;;;;;;;;;;;19.60;42.24;94858.59;10515258;28;2607;-50
2022/11/19 13:07:42;;;;;;;;;;;;;;;19.53;42.26;94866.03;10527432;28;2776;-52
2022/11/19 13:12:46;;;;;;;;;;;;;;;19.46;42.50;94861.16;10526339;28;2692;-51
2022/11/19 13:17:53;;;;;;;;;;;;;;;19.40;42.48;94857.03;10513010;28;2595;-50
2022/11/19 13:22:56;;;;;;;;;;;;;;;19.32;42.55;94866.34;10501818;28;2700;-54
2022/11/19 13:27:56;;;;;;;;;;;;;;;19.30;42.69;94862.44;10520061;28;2566;-50
2022/11/19 13:33:05;;;;;;;;;;;;;;;19.45;42.14;94860.38;10524410;28;2662;-52
2022/11/19 13:38:21;;;;;;;;;;;;;;;19.56;42.10;94857.59;10527134;28;2601;-50
2022/11/19 13:48:42;;;;;;;;;;;;;;;19.67;41.64;94848.47;10518195;28;2737;-52
2022/11/19 13:53:43;;;;;;;;;;;;;;;19.67;41.43;94857.13;10516791;28;2587;-53
2022/11/19 13:58:44;;;;;;;;;;;;;;;19.68;41.52;94855.28;10517066;28;2552;-53
2022/11/19 14:03:51;;;;;;;;;;;;;;;19.64;42.10;94854.31;10552754;27;2736;-52
2022/11/19 14:08:56;;;;;;;;;;;;;;;19.56;42.40;94854.97;10545026;27;2579;-52
2022/11/19 14:31:01;;;;;;;;;;;;;;;19.41;43.04;94848.09;10511385;28;2713;-52
2022/11/19 14:36:07;;;;;;;;;;;;;;;19.42;43.45;94841.78;10517445;28;2611;-50
2022/11/19 14:41:14;;;;;;;;;;;;;;;19.49;43.25;94842.94;10517572;28;2746;-51
2022/11/19 14:46:15;;;;;;;;;;;;;;;19.62;43.75;94845.94;10507486;28;2571;-51
2022/11/19 14:51:25;;;;;;;;;;;;;;;19.71;44.07;94852.84;10519607;28;2591;-51
2022/11/19 14:56:26;;;;;;;;;;;;;;;19.75;44.12;94853.84;10525416;28;2693;-52
2022/11/19 15:01:26;;;;;;;;;;;;;;;19.80;43.47;94855.59;10518454;28;2984;-48
2022/11/19 15:06:27;;;;;;;;;;;;;;;19.87;43.60;94854.16;10523361;28;2621;-51
2022/11/19 15:11:46;;;;;;;;;;;;;;;19.89;43.22;94859.91;10513892;28;2582;-50
2022/11/19 15:16:46;;;;;;;;;;;;;;;19.83;41.51;94868.16;10512546;28;2677;-52
2022/11/19 15:21:57;;;;;;;;;;;;;;;19.83;41.44;94860.28;10506920;28;2586;-49
2022/11/19 15:27:01;;;;;;;;;;;;;;;19.85;41.37;94868.66;10505730;28;2564;-50
2022/11/19 15:32:04;;;;;;;;;;;;;;;19.87;41.18;94871.78;10513961;28;2635;-47
2022/11/19 15:37:08;;;;;;;;;;;;;;;19.86;41.19;94873.63;10513785;28;2660;-50
2022/11/19 15:42:12;;;;;;;;;;;;;;;19.91;40.78;94878.00;10519477;28;2655;-51
2022/11/19 15:47:14;;;;;;;;;;;;;;;19.92;40.98;94890.88;10515274;28;2668;-50
2022/11/19 15:52:21;;;;;;;;;;;;;;;19.94;40.69;94894.00;10520097;28;2647;-51
2022/11/19 15:57:25;;;;;;;;;;;;;;;20.06;41.37;94896.16;10513512;28;2556;-53
2022/11/19 16:02:39;;;;;;;;;;;;;;;20.12;41.53;94900.25;10512093;28;2603;-49
2022/11/19 16:07:39;;;;;;;;;;;;;;;20.11;40.64;94899.47;10516745;28;2552;-51
2022/11/19 16:17:59;;;;;;;;;;;;;;;20.13;40.15;94901.84;10509938;28;2605;-49
2022/11/19 16:23:01;;;;;;;;;;;;;;;20.19;41.21;94917.28;10516378;28;2625;-50
2022/11/19 16:28:03;;;;;;;;;;;;;;;20.18;39.74;94917.53;10496840;28;2583;-53
2022/11/19 16:33:03;;;;;;;;;;;;;;;20.19;40.61;94921.72;10507212;28;2686;-53
2022/11/19 16:38:04;;;;;;;;;;;;;;;20.22;40.40;94927.22;10504825;28;2600;-50
2022/11/19 16:43:04;;;;;;;;;;;;;;;20.22;40.04;94929.84;10502772;28;2630;-51
2022/11/19 16:48:04;;;;;;;;;;;;;;;20.25;40.00;94934.53;10501272;28;2631;-48
2022/11/19 16:53:05;;;;;;;;;;;;;;;20.39;41.58;94937.16;10503752;28;2685;-47
2022/11/19 16:58:16;;;;;;;;;;;;;;;20.54;41.62;94939.53;10509393;28;2708;-48
2022/11/19 17:03:17;;;;;;;;;;;;;;;20.48;40.23;94934.66;10510763;28;2561;-47
2022/11/19 17:08:20;;;;;;;;;;;;;;;20.49;40.08;94936.97;10509361;28;2581;-51
2022/11/19 17:13:29;;;;;;;;;;;;;;;20.45;42.39;94938.63;10506744;28;2748;-49
2022/11/19 17:18:33;;;;;;;;;;;;;;;20.44;44.57;94939.72;10498402;28;2562;-48
2022/11/19 17:23:34;;;;;;;;;;;;;;;20.42;44.64;94941.88;10517607;28;2546;-49
2022/11/19 17:28:35;;;;;;;;;;;;;;;20.42;44.05;94944.50;10487686;28;2575;-47
2022/11/19 17:33:35;;;;;;;;;;;;;;;20.36;43.22;94948.28;10504289;28;2659;-46
2022/11/19 17:38:36;;;;;;;;;;;;;;;20.39;46.27;94955.59;10500415;28;2629;-53
2022/11/19 17:48:55;;;;;;;;;;;;;;;20.38;46.87;94967.19;10512213;28;2548;-49
2022/11/19 17:53:56;;;;;;;;;;;;;;;20.39;48.55;94976.66;10519004;28;2675;-48
2022/11/19 17:58:58;;;;;;;;;;;;;;;20.37;49.26;94980.63;10503246;28;2610;-51
2022/11/19 18:03:58;;;;;;;;;;;;;;;20.33;49.42;94984.94;10505107;28;2542;-50
2022/11/19 18:08:59;;;;;;;;;;;;;;;20.25;49.06;94992.44;10516399;28;2635;-46
2022/11/19 18:14:00;;;;;;;;;;;;;;;20.23;49.37;94996.41;10502518;28;2628;-51
2022/11/19 18:19:00;;;;;;;;;;;;;;;20.20;49.70;95000.41;10504742;28;2545;-47
2022/11/19 18:24:01;;;;;;;;;;;;;;;20.16;49.92;95003.84;10514359;28;2599;-48
2022/11/19 18:29:01;;;;;;;;;;;;;;;20.14;48.98;95004.16;10508612;28;2605;-47
2022/11/19 18:34:02;;;;;;;;;;;;;;;20.10;48.94;95003.16;10513884;28;2627;-46
2022/11/19 18:39:02;;;;;;;;;;;;;;;20.09;48.79;95011.38;10509530;28;2665;-47
2022/11/19 18:49:21;;;;;;;;;;;;;;;20.18;54.02;95015.66;10497727;28;2673;-49
2022/11/19 18:54:21;;;;;;;;;;;;;;;20.20;55.88;95007.50;10508067;28;2511;-52
2022/11/19 18:59:22;;;;;;;;;;;;;;;20.12;56.24;95006.28;10515035;28;2529;-46
2022/11/19 19:04:22;;;;;;;;;;;;;;;20.05;56.52;95008.50;10515994;28;2644;-46
2022/11/19 19:09:23;;;;;;;;;;;;;;;19.96;57.01;94996.31;10520128;28;2625;-47
2022/11/19 19:14:23;;;;;;;;;;;;;;;19.93;56.96;95002.91;10520040;28;2597;-51
2022/11/19 19:19:23;;;;;;;;;;;;;;;19.88;57.58;95003.00;10511577;28;2583;-50
2022/11/19 19:24:24;;;;;;;;;;;;;;;19.96;55.45;95002.34;10520071;28;2609;-51
2022/11/19 19:29:24;;;;;;;;;;;;;;;19.96;58.06;95006.81;10517140;28;2630;-52
2022/11/19 19:34:24;;;;;;;;;;;;;;;20.01;57.65;95009.38;10503037;28;2495;-54
2022/11/19 19:39:25;;;;;;;;;;;;;;;20.00;58.75;95013.06;10511277;28;2534;-55
2022/11/19 19:44:25;;;;;;;;;;;;;;;20.00;59.00;95008.59;10507328;28;2544;-51
2022/11/19 19:49:25;;;;;;;;;;;;;;;20.06;57.53;95017.19;10508883;28;2631;-50
2022/11/19 19:54:26;;;;;;;;;;;;;;;19.95;58.18;95019.19;10517201;28;2538;-48
2022/11/19 19:59:26;;;;;;;;;;;;;;;19.94;58.84;95019.47;10512771;28;2571;-51
2022/11/19 20:04:26;;;;;;;;;;;;;;;19.92;59.41;95025.03;10508330;28;2618;-52
2022/11/19 20:09:27;;;;;;;;;;;;;;;19.89;59.55;95025.59;10513689;28;2598;-51
2022/11/19 20:14:28;;;;;;;;;;;;;;;19.87;59.52;95026.94;10516255;28;2556;-52
2022/11/19 20:19:29;;;;;;;;;;;;;;;19.85;58.88;95032.50;10517629;28;2520;-50
2022/11/19 20:24:29;;;;;;;;;;;;;;;19.83;59.27;95031.22;10509019;28;2550;-52
2022/11/19 20:29:30;;;;;;;;;;;;;;;19.77;59.07;95033.13;10514661;28;2732;-50
2022/11/19 20:34:30;;;;;;;;;;;;;;;19.75;59.09;95022.13;10508504;28;2598;-50
2022/11/19 20:39:30;;;;;;;;;;;;;;;19.73;58.89;95031.34;10512230;28;2628;-53
2022/11/19 20:44:31;;;;;;;;;;;;;;;19.70;58.48;95034.56;10508880;28;2662;-51
2022/11/19 20:49:33;;;;;;;;;;;;;;;19.67;58.62;95024.63;10519736;28;2652;-50
2022/11/19 20:54:33;;;;;;;;;;;;;;;19.65;58.28;95034.63;10515176;28;2628;-52
2022/11/19 20:59:33;;;;;;;;;;;;;;;19.61;58.75;95028.38;10514865;28;2542;-52
2022/11/19 21:04:36;;;;;;;;;;;;;;;19.61;59.37;95031.00;10515112;28;2621;-50
2022/11/19 21:09:36;;;;;;;;;;;;;;;19.59;59.32;95026.03;10507960;28;2625;-52
2022/11/19 21:14:37;;;;;;;;;;;;;;;19.60;58.91;95034.72;10500354;28;2579;-54
2022/11/19 21:19:37;;;;;;;;;;;;;;;19.59;58.77;95030.50;10508696;28;2558;-52
2022/11/19 21:24:37;;;;;;;;;;;;;;;19.55;59.41;95026.88;10505460;28;2630;-49
2022/11/19 21:29:38;;;;;;;;;;;;;;;19.49;59.25;95032.19;10518425;28;2682;-49
2022/11/19 21:34:40;;;;;;;;;;;;;;;19.47;59.63;95029.06;10506050;28;2544;-46
2022/11/19 21:39:40;;;;;;;;;;;;;;;19.42;59.15;95021.28;10515145;28;2524;-51
2022/11/19 21:44:41;;;;;;;;;;;;;;;19.40;59.47;95026.03;10516138;28;2557;-53
2022/11/19 21:49:41;;;;;;;;;;;;;;;19.36;59.57;95029.50;10523111;28;2549;-54
2022/11/19 21:54:41;;;;;;;;;;;;;;;19.34;58.96;95035.03;10520047;28;2578;-49
2022/11/19 21:59:41;;;;;;;;;;;;;;;19.29;58.93;95037.69;10520443;28;2627;-50
2022/11/19 22:04:43;;;;;;;;;;;;;;;19.27;59.14;95026.69;10521083;28;2555;-53
2022/11/19 22:09:43;;;;;;;;;;;;;;;19.25;58.93;95028.81;10514111;28;2605;-52
2022/11/19 22:14:43;;;;;;;;;;;;;;;19.21;59.01;95025.19;10513928;28;2618;-53
2022/11/19 22:19:44;;;;;;;;;;;;;;;19.22;58.81;95028.59;10509366;28;2622;-50
2022/11/19 22:24:45;;;;;;;;;;;;;;;19.20;58.96;95031.53;10514017;28;2531;-52
2022/11/19 22:29:45;;;;;;;;;;;;;;;19.17;57.96;95032.06;10513546;28;2607;-50
2022/11/19 22:34:45;;;;;;;;;;;;;;;19.15;58.91;95031.56;10520447;28;2622;-52
2022/11/19 22:39:45;;;;;;;;;;;;;;;19.16;58.55;95033.16;10518665;28;2526;-52
2022/11/19 22:44:46;;;;;;;;;;;;;;;19.11;58.67;95037.66;10507940;28;2667;-52
2022/11/19 22:49:46;;;;;;;;;;;;;;;19.12;58.21;95041.88;10503926;28;2593;-52
2022/11/19 22:54:46;;;;;;;;;;;;;;;19.09;58.85;95050.28;10510576;28;2781;-50
2022/11/19 22:59:47;;;;;;;;;;;;;;;19.07;58.41;95047.16;10506182;28;2623;-53
2022/11/19 23:04:47;;;;;;;;;;;;;;;19.07;58.60;95053.22;10509539;28;2535;-49
2022/11/19 23:09:47;;;;;;;;;;;;;;;19.03;58.84;95048.78;10507032;28;2612;-49
2022/11/19 23:14:47;;;;;;;;;;;;;;;19.03;58.28;95048.78;10511299;28;2552;-51
2022/11/19 23:19:58;;;;;;;;;;;;;;;18.99;57.95;95048.56;10505321;28;2562;-50
2022/11/19 23:24:58;;;;;;;;;;;;;;;18.99;58.71;95055.66;10515364;28;2599;-52
2022/11/19 23:29:58;;;;;;;;;;;;;;;18.96;59.05;95054.38;10512885;28;2568;-50
2022/11/19 23:34:59;;;;;;;;;;;;;;;18.96;58.47;95046.50;10507170;28;2586;-48
2022/11/19 23:39:59;;;;;;;;;;;;;;;18.94;58.54;95053.13;10518925;28;2600;-51
2022/11/19 23:44:59;;;;;;;;;;;;;;;18.90;58.72;95047.63;10505872;28;2633;-51
2022/11/19 23:50:00;;;;;;;;;;;;;;;18.89;58.75;95048.69;10505650;28;2604;-53
2022/11/19 23:55:00;;;;;;;;;;;;;;;18.88;58.44;95054.19;10509709;28;2715;-52
